sensor_id;sensor_type;location;lat;lon;timestamp;temperature;humidity
3954;DHT22;1991;48.682;9.030;2022-10-16T00:02:00;15.10;99.90
3954;DHT22;1991;48.682;9.030;2022-10-16T00:04:26;15.10;99.90
3954;DHT22;1991;48.682;9.030;2022-10-16T00:06:51;15.10;99.90
3954;DHT22;1991;48.682;9.030;2022-10-16T00:09:17;15.10;99.90
3954;DHT22;1991;48.682;9.030;2022-10-16T00:11:42;15.00;99.90
3954;DHT22;1991;48.682;9.030;2022-10-16T00:14:11;15.00;99.90
3954;DHT22;1991;48.682;9.030;2022-10-16T00:16:38;15.00;99.90
3954;DHT22;1991;48.682;9.030;2022-10-16T00:19:04;15.00;99.90
3954;DHT22;1991;48.682;9.030;2022-10-16T00:21:30;15.00;99.90
3954;DHT22;1991;48.682;9.030;2022-10-16T00:23:59;15.00;99.90
3954;DHT22;1991;48.682;9.030;2022-10-16T00:26:27;15.00;99.90
3954;DHT22;1991;48.682;9.030;2022-10-16T00:28:53;15.00;99.90
3954;DHT22;1991;48.682;9.030;2022-10-16T00:31:20;15.00;99.90
3954;DHT22;1991;48.682;9.030;2022-10-16T00:33:46;15.00;99.90
3954;DHT22;1991;48.682;9.030;2022-10-16T00:36:14;15.00;99.90
3954;DHT22;1991;48.682;9.030;2022-10-16T00:38:40;15.00;99.90
3954;DHT22;1991;48.682;9.030;2022-10-16T00:41:07;15.00;99.90
3954;DHT22;1991;48.682;9.030;2022-10-16T00:43:41;15.00;99.90
3954;DHT22;1991;48.682;9.030;2022-10-16T00:48:39;15.00;99.90
3954;DHT22;1991;48.682;9.030;2022-10-16T00:51:06;15.00;99.90
3954;DHT22;1991;48.682;9.030;2022-10-16T00:53:32;15.00;99.90
3954;DHT22;1991;48.682;9.030;2022-10-16T00:55:58;15.00;99.90
3954;DHT22;1991;48.682;9.030;2022-10-16T00:58:23;15.00;99.90
3954;DHT22;1991;48.682;9.030;2022-10-16T01:00:49;15.00;99.90
3954;DHT22;1991;48.682;9.030;2022-10-16T01:03:29;15.00;99.90
3954;DHT22;1991;48.682;9.030;2022-10-16T01:08:34;15.00;99.90
3954;DHT22;1991;48.682;9.030;2022-10-16T01:11:50;14.90;99.90
3954;DHT22;1991;48.682;9.030;2022-10-16T01:14:30;14.90;99.90
3954;DHT22;1991;48.682;9.030;2022-10-16T01:17:09;14.90;99.90
3954;DHT22;1991;48.682;9.030;2022-10-16T01:23:07;14.80;99.90
3954;DHT22;1991;48.682;9.030;2022-10-16T01:28:23;14.80;99.90
3954;DHT22;1991;48.682;9.030;2022-10-16T01:30:53;14.80;99.90
3954;DHT22;1991;48.682;9.030;2022-10-16T01:33:33;14.80;99.90
3954;DHT22;1991;48.682;9.030;2022-10-16T01:36:06;14.80;99.90
3954;DHT22;1991;48.682;9.030;2022-10-16T01:38:38;14.80;99.90
3954;DHT22;1991;48.682;9.030;2022-10-16T01:41:21;14.80;99.90
3954;DHT22;1991;48.682;9.030;2022-10-16T01:43:56;14.80;99.90
3954;DHT22;1991;48.682;9.030;2022-10-16T01:46:23;14.80;99.90
3954;DHT22;1991;48.682;9.030;2022-10-16T01:48:51;14.80;99.90
3954;DHT22;1991;48.682;9.030;2022-10-16T01:51:18;14.90;99.90
3954;DHT22;1991;48.682;9.030;2022-10-16T01:53:49;14.90;99.90
3954;DHT22;1991;48.682;9.030;2022-10-16T01:56:18;14.90;99.90
3954;DHT22;1991;48.682;9.030;2022-10-16T01:59:11;14.90;99.90
3954;DHT22;1991;48.682;9.030;2022-10-16T02:01:38;14.90;99.90
3954;DHT22;1991;48.682;9.030;2022-10-16T02:04:17;15.00;99.90
3954;DHT22;1991;48.682;9.030;2022-10-16T02:06:44;15.00;99.90
3954;DHT22;1991;48.682;9.030;2022-10-16T02:09:10;15.10;99.90
3954;DHT22;1991;48.682;9.030;2022-10-16T02:11:36;15.10;99.90
3954;DHT22;1991;48.682;9.030;2022-10-16T02:14:04;15.10;99.90
3954;DHT22;1991;48.682;9.030;2022-10-16T02:16:39;15.10;99.90
3954;DHT22;1991;48.682;9.030;2022-10-16T02:19:06;15.20;99.90
3954;DHT22;1991;48.682;9.030;2022-10-16T02:21:59;15.20;99.90
3954;DHT22;1991;48.682;9.030;2022-10-16T02:24:48;15.30;99.90
3954;DHT22;1991;48.682;9.030;2022-10-16T02:27:38;15.20;99.90
3954;DHT22;1991;48.682;9.030;2022-10-16T02:30:13;15.30;99.90
3954;DHT22;1991;48.682;9.030;2022-10-16T02:32:42;15.20;99.90
3954;DHT22;1991;48.682;9.030;2022-10-16T02:35:10;15.20;99.90
3954;DHT22;1991;48.682;9.030;2022-10-16T02:37:37;15.20;99.90
3954;DHT22;1991;48.682;9.030;2022-10-16T02:40:04;15.20;99.90
3954;DHT22;1991;48.682;9.030;2022-10-16T02:42:36;15.20;99.90
3954;DHT22;1991;48.682;9.030;2022-10-16T02:45:03;15.20;99.90
3954;DHT22;1991;48.682;9.030;2022-10-16T02:47:29;15.10;99.90
3954;DHT22;1991;48.682;9.030;2022-10-16T02:49:54;15.10;99.90
3954;DHT22;1991;48.682;9.030;2022-10-16T02:52:20;15.10;99.90
3954;DHT22;1991;48.682;9.030;2022-10-16T02:54:46;15.10;99.90
3954;DHT22;1991;48.682;9.030;2022-10-16T02:57:11;15.10;99.90
3954;DHT22;1991;48.682;9.030;2022-10-16T02:59:37;15.10;99.90
3954;DHT22;1991;48.682;9.030;2022-10-16T03:02:03;15.10;99.90
3954;DHT22;1991;48.682;9.030;2022-10-16T03:04:28;15.00;99.90
3954;DHT22;1991;48.682;9.030;2022-10-16T03:06:54;15.00;99.90
3954;DHT22;1991;48.682;9.030;2022-10-16T03:09:19;15.00;99.90
3954;DHT22;1991;48.682;9.030;2022-10-16T03:11:45;15.00;99.90
3954;DHT22;1991;48.682;9.030;2022-10-16T03:14:10;15.00;99.90
3954;DHT22;1991;48.682;9.030;2022-10-16T03:16:36;15.00;99.90
3954;DHT22;1991;48.682;9.030;2022-10-16T03:19:01;15.00;99.90
3954;DHT22;1991;48.682;9.030;2022-10-16T03:21:27;15.00;99.90
3954;DHT22;1991;48.682;9.030;2022-10-16T03:23:53;15.00;99.90
3954;DHT22;1991;48.682;9.030;2022-10-16T03:26:18;15.00;99.90
3954;DHT22;1991;48.682;9.030;2022-10-16T03:28:44;14.90;99.90
3954;DHT22;1991;48.682;9.030;2022-10-16T03:31:09;15.00;99.90
3954;DHT22;1991;48.682;9.030;2022-10-16T03:33:35;14.90;99.90
3954;DHT22;1991;48.682;9.030;2022-10-16T03:36:00;14.90;99.90
3954;DHT22;1991;48.682;9.030;2022-10-16T03:38:26;14.90;99.90
3954;DHT22;1991;48.682;9.030;2022-10-16T03:40:52;14.90;99.90
3954;DHT22;1991;48.682;9.030;2022-10-16T03:43:17;14.90;99.90
3954;DHT22;1991;48.682;9.030;2022-10-16T03:45:43;14.80;99.90
3954;DHT22;1991;48.682;9.030;2022-10-16T03:48:08;14.80;99.90
3954;DHT22;1991;48.682;9.030;2022-10-16T03:50:34;14.80;99.90
3954;DHT22;1991;48.682;9.030;2022-10-16T03:53:00;14.80;99.90
3954;DHT22;1991;48.682;9.030;2022-10-16T03:55:25;14.80;99.90
3954;DHT22;1991;48.682;9.030;2022-10-16T03:57:51;14.80;99.90
3954;DHT22;1991;48.682;9.030;2022-10-16T04:00:16;14.80;99.90
3954;DHT22;1991;48.682;9.030;2022-10-16T04:02:42;14.80;99.90
3954;DHT22;1991;48.682;9.030;2022-10-16T04:05:08;14.80;99.90
3954;DHT22;1991;48.682;9.030;2022-10-16T04:07:33;14.80;99.90
3954;DHT22;1991;48.682;9.030;2022-10-16T04:09:59;14.80;99.90
3954;DHT22;1991;48.682;9.030;2022-10-16T04:12:26;14.70;99.90
3954;DHT22;1991;48.682;9.030;2022-10-16T04:14:52;14.70;99.90
3954;DHT22;1991;48.682;9.030;2022-10-16T04:17:17;14.70;99.90
3954;DHT22;1991;48.682;9.030;2022-10-16T04:19:43;14.70;99.90
3954;DHT22;1991;48.682;9.030;2022-10-16T04:22:08;14.70;99.90
3954;DHT22;1991;48.682;9.030;2022-10-16T04:24:34;14.60;99.90
3954;DHT22;1991;48.682;9.030;2022-10-16T04:27:00;14.60;99.90
3954;DHT22;1991;48.682;9.030;2022-10-16T04:29:25;14.60;99.90
3954;DHT22;1991;48.682;9.030;2022-10-16T04:31:51;14.60;99.90
3954;DHT22;1991;48.682;9.030;2022-10-16T04:34:16;14.60;99.90
3954;DHT22;1991;48.682;9.030;2022-10-16T04:36:42;14.60;99.90
3954;DHT22;1991;48.682;9.030;2022-10-16T04:39:08;14.50;99.90
3954;DHT22;1991;48.682;9.030;2022-10-16T04:41:33;14.50;99.90
3954;DHT22;1991;48.682;9.030;2022-10-16T04:43:59;14.50;99.90
3954;DHT22;1991;48.682;9.030;2022-10-16T04:46:24;14.50;99.90
3954;DHT22;1991;48.682;9.030;2022-10-16T04:48:50;14.50;99.90
3954;DHT22;1991;48.682;9.030;2022-10-16T04:51:15;14.50;99.90
3954;DHT22;1991;48.682;9.030;2022-10-16T04:53:41;14.50;99.90
3954;DHT22;1991;48.682;9.030;2022-10-16T04:56:07;14.50;99.90
3954;DHT22;1991;48.682;9.030;2022-10-16T04:58:32;14.50;99.90
3954;DHT22;1991;48.682;9.030;2022-10-16T05:00:58;14.60;99.90
3954;DHT22;1991;48.682;9.030;2022-10-16T05:03:24;14.50;99.90
3954;DHT22;1991;48.682;9.030;2022-10-16T05:05:49;14.60;99.90
3954;DHT22;1991;48.682;9.030;2022-10-16T05:08:15;14.50;99.90
3954;DHT22;1991;48.682;9.030;2022-10-16T05:10:42;14.50;99.90
3954;DHT22;1991;48.682;9.030;2022-10-16T05:13:08;14.60;99.90
3954;DHT22;1991;48.682;9.030;2022-10-16T05:15:34;14.50;99.90
3954;DHT22;1991;48.682;9.030;2022-10-16T05:18:00;14.50;99.90
3954;DHT22;1991;48.682;9.030;2022-10-16T05:20:25;14.50;99.90
3954;DHT22;1991;48.682;9.030;2022-10-16T05:22:51;14.40;99.90
3954;DHT22;1991;48.682;9.030;2022-10-16T05:25:17;14.40;99.90
3954;DHT22;1991;48.682;9.030;2022-10-16T05:27:43;14.30;99.90
3954;DHT22;1991;48.682;9.030;2022-10-16T05:30:09;14.30;99.90
3954;DHT22;1991;48.682;9.030;2022-10-16T05:32:35;14.30;99.90
3954;DHT22;1991;48.682;9.030;2022-10-16T05:35:00;14.30;99.90
3954;DHT22;1991;48.682;9.030;2022-10-16T05:37:27;14.30;99.90
3954;DHT22;1991;48.682;9.030;2022-10-16T05:39:53;14.30;99.90
3954;DHT22;1991;48.682;9.030;2022-10-16T05:42:18;14.30;99.90
3954;DHT22;1991;48.682;9.030;2022-10-16T05:44:44;14.30;99.90
3954;DHT22;1991;48.682;9.030;2022-10-16T05:47:10;14.30;99.90
3954;DHT22;1991;48.682;9.030;2022-10-16T05:49:37;14.30;99.90
3954;DHT22;1991;48.682;9.030;2022-10-16T05:52:03;14.30;99.90
3954;DHT22;1991;48.682;9.030;2022-10-16T05:54:28;14.40;99.90
3954;DHT22;1991;48.682;9.030;2022-10-16T05:56:54;14.40;99.90
3954;DHT22;1991;48.682;9.030;2022-10-16T05:59:19;14.40;99.90
3954;DHT22;1991;48.682;9.030;2022-10-16T06:01:45;14.40;99.90
3954;DHT22;1991;48.682;9.030;2022-10-16T06:04:10;14.50;99.90
3954;DHT22;1991;48.682;9.030;2022-10-16T06:06:36;14.50;99.90
3954;DHT22;1991;48.682;9.030;2022-10-16T06:09:02;14.50;99.90
3954;DHT22;1991;48.682;9.030;2022-10-16T06:11:30;14.50;99.90
3954;DHT22;1991;48.682;9.030;2022-10-16T06:13:58;14.50;99.90
3954;DHT22;1991;48.682;9.030;2022-10-16T06:16:25;14.60;99.90
3954;DHT22;1991;48.682;9.030;2022-10-16T06:18:52;14.70;99.90
3954;DHT22;1991;48.682;9.030;2022-10-16T06:21:20;14.80;99.90
3954;DHT22;1991;48.682;9.030;2022-10-16T06:23:46;14.80;99.90
3954;DHT22;1991;48.682;9.030;2022-10-16T06:26:15;14.90;99.90
3954;DHT22;1991;48.682;9.030;2022-10-16T06:28:41;14.90;99.90
3954;DHT22;1991;48.682;9.030;2022-10-16T06:31:08;15.00;99.90
3954;DHT22;1991;48.682;9.030;2022-10-16T06:33:35;15.00;99.90
3954;DHT22;1991;48.682;9.030;2022-10-16T06:38:31;15.20;99.90
3954;DHT22;1991;48.682;9.030;2022-10-16T06:40:57;15.30;99.90
3954;DHT22;1991;48.682;9.030;2022-10-16T06:43:22;15.50;99.90
3954;DHT22;1991;48.682;9.030;2022-10-16T06:45:55;15.80;99.90
3954;DHT22;1991;48.682;9.030;2022-10-16T06:48:23;16.00;99.90
3954;DHT22;1991;48.682;9.030;2022-10-16T06:53:23;16.00;99.90
3954;DHT22;1991;48.682;9.030;2022-10-16T06:55:49;15.90;99.90
3954;DHT22;1991;48.682;9.030;2022-10-16T06:58:14;15.90;99.90
3954;DHT22;1991;48.682;9.030;2022-10-16T07:00:40;15.80;99.90
3954;DHT22;1991;48.682;9.030;2022-10-16T07:03:05;15.80;99.90
3954;DHT22;1991;48.682;9.030;2022-10-16T07:05:31;15.80;99.90
3954;DHT22;1991;48.682;9.030;2022-10-16T07:07:56;15.80;99.90
3954;DHT22;1991;48.682;9.030;2022-10-16T07:10:22;15.90;99.90
3954;DHT22;1991;48.682;9.030;2022-10-16T07:12:50;15.90;99.90
3954;DHT22;1991;48.682;9.030;2022-10-16T07:15:16;15.90;99.90
3954;DHT22;1991;48.682;9.030;2022-10-16T07:17:41;15.90;99.90
3954;DHT22;1991;48.682;9.030;2022-10-16T07:20:07;15.80;99.90
3954;DHT22;1991;48.682;9.030;2022-10-16T07:22:33;15.80;99.90
3954;DHT22;1991;48.682;9.030;2022-10-16T07:24:58;15.90;99.90
3954;DHT22;1991;48.682;9.030;2022-10-16T07:27:24;15.80;99.90
3954;DHT22;1991;48.682;9.030;2022-10-16T07:29:50;15.80;99.90
3954;DHT22;1991;48.682;9.030;2022-10-16T07:32:15;15.80;99.90
3954;DHT22;1991;48.682;9.030;2022-10-16T07:34:41;15.80;99.90
3954;DHT22;1991;48.682;9.030;2022-10-16T07:37:07;15.80;99.90
3954;DHT22;1991;48.682;9.030;2022-10-16T07:39:33;15.90;99.90
3954;DHT22;1991;48.682;9.030;2022-10-16T07:41:59;15.90;99.90
3954;DHT22;1991;48.682;9.030;2022-10-16T07:44:24;15.90;99.90
3954;DHT22;1991;48.682;9.030;2022-10-16T07:46:50;15.90;99.90
3954;DHT22;1991;48.682;9.030;2022-10-16T07:49:15;16.00;99.90
3954;DHT22;1991;48.682;9.030;2022-10-16T07:51:41;16.00;99.90
3954;DHT22;1991;48.682;9.030;2022-10-16T07:54:08;16.10;99.90
3954;DHT22;1991;48.682;9.030;2022-10-16T07:56:34;16.10;99.90
3954;DHT22;1991;48.682;9.030;2022-10-16T07:59:00;16.10;99.90
3954;DHT22;1991;48.682;9.030;2022-10-16T08:01:25;16.10;99.90
3954;DHT22;1991;48.682;9.030;2022-10-16T08:03:52;16.10;99.90
3954;DHT22;1991;48.682;9.030;2022-10-16T08:06:18;16.10;99.90
3954;DHT22;1991;48.682;9.030;2022-10-16T08:08:44;16.20;99.90
3954;DHT22;1991;48.682;9.030;2022-10-16T08:11:10;16.20;99.90
3954;DHT22;1991;48.682;9.030;2022-10-16T08:13:36;16.30;99.90
3954;DHT22;1991;48.682;9.030;2022-10-16T08:16:03;16.40;99.90
3954;DHT22;1991;48.682;9.030;2022-10-16T08:18:34;16.50;99.90
3954;DHT22;1991;48.682;9.030;2022-10-16T08:21:00;16.70;99.90
3954;DHT22;1991;48.682;9.030;2022-10-16T08:23:26;16.90;99.90
3954;DHT22;1991;48.682;9.030;2022-10-16T08:25:53;17.20;99.90
3954;DHT22;1991;48.682;9.030;2022-10-16T08:28:19;17.40;99.90
3954;DHT22;1991;48.682;9.030;2022-10-16T08:30:45;17.40;99.90
3954;DHT22;1991;48.682;9.030;2022-10-16T08:33:11;17.30;99.90
3954;DHT22;1991;48.682;9.030;2022-10-16T08:35:36;17.30;99.90
3954;DHT22;1991;48.682;9.030;2022-10-16T08:38:06;17.20;99.90
3954;DHT22;1991;48.682;9.030;2022-10-16T08:40:33;17.30;99.90
3954;DHT22;1991;48.682;9.030;2022-10-16T08:46:20;17.30;99.90
3954;DHT22;1991;48.682;9.030;2022-10-16T08:48:54;17.20;99.90
3954;DHT22;1991;48.682;9.030;2022-10-16T08:51:35;17.20;99.90
3954;DHT22;1991;48.682;9.030;2022-10-16T08:54:03;17.20;99.90
3954;DHT22;1991;48.682;9.030;2022-10-16T08:56:29;17.20;99.90
3954;DHT22;1991;48.682;9.030;2022-10-16T08:58:58;17.40;99.90
3954;DHT22;1991;48.682;9.030;2022-10-16T09:01:32;17.50;99.90
3954;DHT22;1991;48.682;9.030;2022-10-16T09:06:47;17.80;99.90
3954;DHT22;1991;48.682;9.030;2022-10-16T09:09:46;18.40;99.90
3954;DHT22;1991;48.682;9.030;2022-10-16T09:12:22;18.90;99.90
3954;DHT22;1991;48.682;9.030;2022-10-16T09:15:13;19.30;99.90
3954;DHT22;1991;48.682;9.030;2022-10-16T09:17:55;19.90;99.90
3954;DHT22;1991;48.682;9.030;2022-10-16T09:20:41;21.00;99.90
3954;DHT22;1991;48.682;9.030;2022-10-16T09:23:32;25.20;99.90
3954;DHT22;1991;48.682;9.030;2022-10-16T09:25:59;29.50;90.30
3954;DHT22;1991;48.682;9.030;2022-10-16T09:28:25;31.70;67.40
3954;DHT22;1991;48.682;9.030;2022-10-16T09:30:51;34.10;59.80
3954;DHT22;1991;48.682;9.030;2022-10-16T09:33:20;34.60;53.20
3954;DHT22;1991;48.682;9.030;2022-10-16T09:35:49;31.80;53.70
3954;DHT22;1991;48.682;9.030;2022-10-16T09:38:35;29.40;57.50
3954;DHT22;1991;48.682;9.030;2022-10-16T09:43:52;27.10;67.70
3954;DHT22;1991;48.682;9.030;2022-10-16T09:46:31;29.70;62.70
3954;DHT22;1991;48.682;9.030;2022-10-16T09:49:49;30.60;57.70
3954;DHT22;1991;48.682;9.030;2022-10-16T09:51:44;31.20;55.40
3954;DHT22;1991;48.682;9.030;2022-10-16T09:54:13;31.60;55.20
3954;DHT22;1991;48.682;9.030;2022-10-16T09:56:39;31.00;54.90
3954;DHT22;1991;48.682;9.030;2022-10-16T09:59:14;31.50;54.30
3954;DHT22;1991;48.682;9.030;2022-10-16T10:01:51;30.00;55.00
3954;DHT22;1991;48.682;9.030;2022-10-16T10:04:22;33.50;54.00
3954;DHT22;1991;48.682;9.030;2022-10-16T10:06:50;32.60;50.50
3954;DHT22;1991;48.682;9.030;2022-10-16T10:09:23;34.30;50.20
3954;DHT22;1991;48.682;9.030;2022-10-16T10:12:00;39.00;44.20
3954;DHT22;1991;48.682;9.030;2022-10-16T10:14:48;42.10;40.60
3954;DHT22;1991;48.682;9.030;2022-10-16T10:17:17;40.00;40.10
3954;DHT22;1991;48.682;9.030;2022-10-16T10:19:50;37.40;39.20
3954;DHT22;1991;48.682;9.030;2022-10-16T10:25:36;30.60;47.80
3954;DHT22;1991;48.682;9.030;2022-10-16T10:28:32;28.10;52.80
3954;DHT22;1991;48.682;9.030;2022-10-16T10:31:21;26.10;57.30
3954;DHT22;1991;48.682;9.030;2022-10-16T10:34:24;25.20;60.70
3954;DHT22;1991;48.682;9.030;2022-10-16T10:37:09;24.80;62.40
3954;DHT22;1991;48.682;9.030;2022-10-16T10:39:48;24.60;63.80
3954;DHT22;1991;48.682;9.030;2022-10-16T10:42:32;24.50;63.50
3954;DHT22;1991;48.682;9.030;2022-10-16T10:45:28;24.50;63.80
3954;DHT22;1991;48.682;9.030;2022-10-16T10:56:39;24.20;67.10
3954;DHT22;1991;48.682;9.030;2022-10-16T10:59:16;24.60;67.30
3954;DHT22;1991;48.682;9.030;2022-10-16T11:07:32;25.40;64.60
3954;DHT22;1991;48.682;9.030;2022-10-16T11:10:13;25.80;62.30
3954;DHT22;1991;48.682;9.030;2022-10-16T11:12:44;25.70;61.50
3954;DHT22;1991;48.682;9.030;2022-10-16T11:15:15;25.10;63.70
3954;DHT22;1991;48.682;9.030;2022-10-16T11:17:53;24.60;65.10
3954;DHT22;1991;48.682;9.030;2022-10-16T11:20:24;24.60;66.00
3954;DHT22;1991;48.682;9.030;2022-10-16T11:23:18;24.80;65.90
3954;DHT22;1991;48.682;9.030;2022-10-16T11:25:46;25.30;63.40
3954;DHT22;1991;48.682;9.030;2022-10-16T11:28:33;25.60;62.20
3954;DHT22;1991;48.682;9.030;2022-10-16T11:31:16;25.30;61.60
3954;DHT22;1991;48.682;9.030;2022-10-16T11:33:55;24.90;62.70
3954;DHT22;1991;48.682;9.030;2022-10-16T11:36:28;25.20;64.40
3954;DHT22;1991;48.682;9.030;2022-10-16T11:39:04;25.30;63.10
3954;DHT22;1991;48.682;9.030;2022-10-16T11:41:56;25.30;62.90
3954;DHT22;1991;48.682;9.030;2022-10-16T11:44:57;25.50;63.70
3954;DHT22;1991;48.682;9.030;2022-10-16T11:47:48;25.90;63.30
3954;DHT22;1991;48.682;9.030;2022-10-16T11:50:37;26.40;63.60
3954;DHT22;1991;48.682;9.030;2022-10-16T11:55:48;27.10;61.20
3954;DHT22;1991;48.682;9.030;2022-10-16T11:58:22;27.50;60.80
3954;DHT22;1991;48.682;9.030;2022-10-16T12:03:46;27.70;59.00
3954;DHT22;1991;48.682;9.030;2022-10-16T12:09:27;26.40;59.80
3954;DHT22;1991;48.682;9.030;2022-10-16T12:11:53;26.10;60.90
3954;DHT22;1991;48.682;9.030;2022-10-16T12:16:56;25.50;62.30
3954;DHT22;1991;48.682;9.030;2022-10-16T12:19:24;25.20;62.60
3954;DHT22;1991;48.682;9.030;2022-10-16T12:21:51;25.20;62.90
3954;DHT22;1991;48.682;9.030;2022-10-16T12:24:42;25.10;63.00
3954;DHT22;1991;48.682;9.030;2022-10-16T12:27:30;24.80;63.70
3954;DHT22;1991;48.682;9.030;2022-10-16T12:30:02;24.70;63.40
3954;DHT22;1991;48.682;9.030;2022-10-16T12:32:34;24.70;63.20
3954;DHT22;1991;48.682;9.030;2022-10-16T12:35:02;25.00;62.00
3954;DHT22;1991;48.682;9.030;2022-10-16T12:37:36;25.30;61.50
3954;DHT22;1991;48.682;9.030;2022-10-16T12:42:50;25.50;61.50
3954;DHT22;1991;48.682;9.030;2022-10-16T12:45:30;25.30;61.60
3954;DHT22;1991;48.682;9.030;2022-10-16T12:47:57;25.10;61.00
3954;DHT22;1991;48.682;9.030;2022-10-16T12:52:53;24.50;62.80
3954;DHT22;1991;48.682;9.030;2022-10-16T12:55:21;24.30;62.90
3954;DHT22;1991;48.682;9.030;2022-10-16T12:58:09;24.20;63.80
3954;DHT22;1991;48.682;9.030;2022-10-16T13:00:56;24.10;63.30
3954;DHT22;1991;48.682;9.030;2022-10-16T13:09:19;24.20;63.70
3954;DHT22;1991;48.682;9.030;2022-10-16T13:12:06;24.20;64.40
3954;DHT22;1991;48.682;9.030;2022-10-16T13:14:56;24.40;64.90
3954;DHT22;1991;48.682;9.030;2022-10-16T13:25:56;24.40;64.20
3954;DHT22;1991;48.682;9.030;2022-10-16T13:28:30;24.80;63.40
3954;DHT22;1991;48.682;9.030;2022-10-16T13:30:58;25.10;64.50
3954;DHT22;1991;48.682;9.030;2022-10-16T13:33:36;25.30;62.60
3954;DHT22;1991;48.682;9.030;2022-10-16T13:36:03;25.30;64.30
3954;DHT22;1991;48.682;9.030;2022-10-16T13:38:34;25.30;63.40
3954;DHT22;1991;48.682;9.030;2022-10-16T13:41:15;25.20;62.90
3954;DHT22;1991;48.682;9.030;2022-10-16T13:43:50;25.00;62.70
3954;DHT22;1991;48.682;9.030;2022-10-16T13:46:18;24.80;64.90
3954;DHT22;1991;48.682;9.030;2022-10-16T13:48:55;24.50;66.10
3954;DHT22;1991;48.682;9.030;2022-10-16T13:51:21;24.40;67.70
3954;DHT22;1991;48.682;9.030;2022-10-16T13:53:52;24.20;68.90
3954;DHT22;1991;48.682;9.030;2022-10-16T13:56:20;24.20;69.60
3954;DHT22;1991;48.682;9.030;2022-10-16T13:58:57;24.10;69.70
3954;DHT22;1991;48.682;9.030;2022-10-16T14:01:26;24.00;68.90
3954;DHT22;1991;48.682;9.030;2022-10-16T14:03:52;24.00;70.10
3954;DHT22;1991;48.682;9.030;2022-10-16T14:06:20;23.90;70.70
3954;DHT22;1991;48.682;9.030;2022-10-16T14:08:59;23.90;70.70
3954;DHT22;1991;48.682;9.030;2022-10-16T14:11:25;23.90;70.60
3954;DHT22;1991;48.682;9.030;2022-10-16T14:13:52;23.80;70.30
3954;DHT22;1991;48.682;9.030;2022-10-16T14:16:20;23.70;70.10
3954;DHT22;1991;48.682;9.030;2022-10-16T14:18:59;23.70;70.70
3954;DHT22;1991;48.682;9.030;2022-10-16T14:21:26;23.60;71.60
3954;DHT22;1991;48.682;9.030;2022-10-16T14:23:52;23.60;71.50
3954;DHT22;1991;48.682;9.030;2022-10-16T14:26:25;23.60;71.70
3954;DHT22;1991;48.682;9.030;2022-10-16T14:29:30;23.50;71.10
3954;DHT22;1991;48.682;9.030;2022-10-16T14:32:02;23.50;72.10
3954;DHT22;1991;48.682;9.030;2022-10-16T14:34:33;23.50;71.10
3954;DHT22;1991;48.682;9.030;2022-10-16T14:37:20;23.50;71.60
3954;DHT22;1991;48.682;9.030;2022-10-16T14:39:52;23.50;72.60
3954;DHT22;1991;48.682;9.030;2022-10-16T14:42:19;23.60;71.30
3954;DHT22;1991;48.682;9.030;2022-10-16T14:44:46;23.60;72.10
3954;DHT22;1991;48.682;9.030;2022-10-16T14:47:18;23.50;71.80
3954;DHT22;1991;48.682;9.030;2022-10-16T14:49:50;23.40;72.70
3954;DHT22;1991;48.682;9.030;2022-10-16T14:52:16;23.30;73.10
3954;DHT22;1991;48.682;9.030;2022-10-16T14:54:43;23.20;73.50
3954;DHT22;1991;48.682;9.030;2022-10-16T14:57:26;23.20;73.80
3954;DHT22;1991;48.682;9.030;2022-10-16T14:59:53;23.20;74.30
3954;DHT22;1991;48.682;9.030;2022-10-16T15:02:32;23.20;73.80
3954;DHT22;1991;48.682;9.030;2022-10-16T15:05:12;23.10;74.60
3954;DHT22;1991;48.682;9.030;2022-10-16T15:07:38;23.10;74.70
3954;DHT22;1991;48.682;9.030;2022-10-16T15:10:04;23.00;72.40
3954;DHT22;1991;48.682;9.030;2022-10-16T15:12:30;22.80;73.10
3954;DHT22;1991;48.682;9.030;2022-10-16T15:14:55;22.80;73.60
3954;DHT22;1991;48.682;9.030;2022-10-16T15:17:21;22.70;74.60
3954;DHT22;1991;48.682;9.030;2022-10-16T15:19:47;22.70;75.10
3954;DHT22;1991;48.682;9.030;2022-10-16T15:22:12;22.70;75.70
3954;DHT22;1991;48.682;9.030;2022-10-16T15:24:38;22.60;76.50
3954;DHT22;1991;48.682;9.030;2022-10-16T15:27:04;22.60;77.00
3954;DHT22;1991;48.682;9.030;2022-10-16T15:29:29;22.50;77.50
3954;DHT22;1991;48.682;9.030;2022-10-16T15:31:55;22.40;78.20
3954;DHT22;1991;48.682;9.030;2022-10-16T15:34:20;22.30;79.10
3954;DHT22;1991;48.682;9.030;2022-10-16T15:36:46;22.20;80.00
3954;DHT22;1991;48.682;9.030;2022-10-16T15:39:12;22.20;80.30
3954;DHT22;1991;48.682;9.030;2022-10-16T15:41:39;22.10;80.70
3954;DHT22;1991;48.682;9.030;2022-10-16T15:44:04;21.90;81.60
3954;DHT22;1991;48.682;9.030;2022-10-16T15:46:30;21.80;82.20
3954;DHT22;1991;48.682;9.030;2022-10-16T15:48:57;21.80;83.60
3954;DHT22;1991;48.682;9.030;2022-10-16T15:51:24;21.70;84.80
3954;DHT22;1991;48.682;9.030;2022-10-16T15:53:50;21.60;85.50
3954;DHT22;1991;48.682;9.030;2022-10-16T15:56:17;21.50;86.10
3954;DHT22;1991;48.682;9.030;2022-10-16T15:58:43;21.40;86.60
3954;DHT22;1991;48.682;9.030;2022-10-16T16:01:09;21.30;87.00
3954;DHT22;1991;48.682;9.030;2022-10-16T16:03:36;21.20;87.30
3954;DHT22;1991;48.682;9.030;2022-10-16T16:06:10;21.10;88.50
3954;DHT22;1991;48.682;9.030;2022-10-16T16:08:37;21.00;89.40
3954;DHT22;1991;48.682;9.030;2022-10-16T16:11:08;20.90;90.60
3954;DHT22;1991;48.682;9.030;2022-10-16T16:13:34;20.90;92.00
3954;DHT22;1991;48.682;9.030;2022-10-16T16:16:09;20.80;93.00
3954;DHT22;1991;48.682;9.030;2022-10-16T16:18:35;20.70;93.70
3954;DHT22;1991;48.682;9.030;2022-10-16T16:21:01;20.60;94.00
3954;DHT22;1991;48.682;9.030;2022-10-16T16:23:27;20.40;94.30
3954;DHT22;1991;48.682;9.030;2022-10-16T16:26:14;20.30;95.10
3954;DHT22;1991;48.682;9.030;2022-10-16T16:28:41;20.20;96.20
3954;DHT22;1991;48.682;9.030;2022-10-16T16:31:07;20.00;97.50
3954;DHT22;1991;48.682;9.030;2022-10-16T16:33:33;19.90;98.70
3954;DHT22;1991;48.682;9.030;2022-10-16T16:36:00;19.80;99.90
3954;DHT22;1991;48.682;9.030;2022-10-16T16:38:26;19.70;99.90
3954;DHT22;1991;48.682;9.030;2022-10-16T16:40:52;19.60;99.90
3954;DHT22;1991;48.682;9.030;2022-10-16T16:43:19;19.50;99.90
3954;DHT22;1991;48.682;9.030;2022-10-16T16:45:44;19.40;99.90
3954;DHT22;1991;48.682;9.030;2022-10-16T16:48:10;19.30;99.90
3954;DHT22;1991;48.682;9.030;2022-10-16T16:50:36;19.30;99.90
3954;DHT22;1991;48.682;9.030;2022-10-16T16:53:02;19.20;99.90
3954;DHT22;1991;48.682;9.030;2022-10-16T16:55:28;19.10;99.90
3954;DHT22;1991;48.682;9.030;2022-10-16T16:57:53;19.10;99.90
3954;DHT22;1991;48.682;9.030;2022-10-16T17:00:19;19.00;99.90
3954;DHT22;1991;48.682;9.030;2022-10-16T17:02:48;18.90;99.90
3954;DHT22;1991;48.682;9.030;2022-10-16T17:05:14;18.80;99.90
3954;DHT22;1991;48.682;9.030;2022-10-16T17:07:40;18.80;99.90
3954;DHT22;1991;48.682;9.030;2022-10-16T17:10:07;18.70;99.90
3954;DHT22;1991;48.682;9.030;2022-10-16T17:12:33;18.70;99.90
3954;DHT22;1991;48.682;9.030;2022-10-16T17:14:58;18.60;99.90
3954;DHT22;1991;48.682;9.030;2022-10-16T17:17:24;18.60;99.90
3954;DHT22;1991;48.682;9.030;2022-10-16T17:19:50;18.60;99.90
3954;DHT22;1991;48.682;9.030;2022-10-16T17:22:16;18.50;99.90
3954;DHT22;1991;48.682;9.030;2022-10-16T17:24:42;18.50;99.90
3954;DHT22;1991;48.682;9.030;2022-10-16T17:27:08;18.40;99.90
3954;DHT22;1991;48.682;9.030;2022-10-16T17:29:34;18.40;99.90
3954;DHT22;1991;48.682;9.030;2022-10-16T17:32:00;18.40;99.90
3954;DHT22;1991;48.682;9.030;2022-10-16T17:34:25;18.40;99.90